sensor_id;sensor_type;location;lat;lon;timestamp;pressure;altitude;pressure_sealevel;temperature;humidity
13800;BME280;6971;50.028;9.258;2023-05-22T00:04:09;99050.25;;;15.31;100.00
13800;BME280;6971;50.028;9.258;2023-05-22T00:09:12;99046.97;;;15.38;100.00
13800;BME280;6971;50.028;9.258;2023-05-22T00:14:12;99055.91;;;15.37;100.00
13800;BME280;6971;50.028;9.258;2023-05-22T00:19:13;99045.41;;;15.36;100.00
13800;BME280;6971;50.028;9.258;2023-05-22T00:24:15;99040.44;;;15.43;100.00
13800;BME280;6971;50.028;9.258;2023-05-22T00:29:16;99039.09;;;15.48;100.00
13800;BME280;6971;50.028;9.258;2023-05-22T00:34:16;99045.81;;;15.64;100.00
13800;BME280;6971;50.028;9.258;2023-05-22T00:39:17;99032.66;;;15.62;100.00
13800;BME280;6971;50.028;9.258;2023-05-22T00:44:17;99035.91;;;15.66;100.00
13800;BME280;6971;50.028;9.258;2023-05-22T00:49:17;99029.19;;;15.62;100.00
13800;BME280;6971;50.028;9.258;2023-05-22T00:54:18;99035.19;;;15.64;100.00
13800;BME280;6971;50.028;9.258;2023-05-22T00:59:18;99032.09;;;15.59;100.00
13800;BME280;6971;50.028;9.258;2023-05-22T01:04:19;99028.09;;;15.53;100.00
13800;BME280;6971;50.028;9.258;2023-05-22T01:09:20;99027.25;;;15.52;100.00
13800;BME280;6971;50.028;9.258;2023-05-22T01:14:43;99026.78;;;15.47;100.00
13800;BME280;6971;50.028;9.258;2023-05-22T01:20:07;99024.41;;;15.44;100.00
13800;BME280;6971;50.028;9.258;2023-05-22T01:25:35;99023.78;;;15.40;100.00
13800;BME280;6971;50.028;9.258;2023-05-22T01:35:59;99033.59;;;15.17;100.00
13800;BME280;6971;50.028;9.258;2023-05-22T01:41:00;99024.81;;;15.05;100.00
13800;BME280;6971;50.028;9.258;2023-05-22T01:46:00;99026.63;;;14.93;100.00
13800;BME280;6971;50.028;9.258;2023-05-22T01:51:19;99034.22;;;14.86;100.00
13800;BME280;6971;50.028;9.258;2023-05-22T01:56:28;99033.34;;;14.74;100.00
13800;BME280;6971;50.028;9.258;2023-05-22T02:01:36;99032.38;;;14.64;100.00
13800;BME280;6971;50.028;9.258;2023-05-22T02:06:38;99033.06;;;14.55;100.00
13800;BME280;6971;50.028;9.258;2023-05-22T02:11:40;99028.84;;;14.52;100.00
13800;BME280;6971;50.028;9.258;2023-05-22T02:16:41;99037.28;;;14.46;100.00
13800;BME280;6971;50.028;9.258;2023-05-22T02:21:41;99041.00;;;14.43;100.00
13800;BME280;6971;50.028;9.258;2023-05-22T02:26:42;99035.34;;;14.36;100.00
13800;BME280;6971;50.028;9.258;2023-05-22T02:31:43;99032.56;;;14.38;100.00
13800;BME280;6971;50.028;9.258;2023-05-22T02:36:43;99032.38;;;14.17;100.00
13800;BME280;6971;50.028;9.258;2023-05-22T02:41:44;99035.78;;;14.19;100.00
13800;BME280;6971;50.028;9.258;2023-05-22T02:46:44;99023.28;;;13.96;100.00
13800;BME280;6971;50.028;9.258;2023-05-22T02:51:46;99032.69;;;14.01;100.00
13800;BME280;6971;50.028;9.258;2023-05-22T02:56:46;99025.44;;;13.91;100.00
13800;BME280;6971;50.028;9.258;2023-05-22T03:01:47;99021.59;;;13.95;100.00
13800;BME280;6971;50.028;9.258;2023-05-22T03:06:47;99031.81;;;13.89;100.00
13800;BME280;6971;50.028;9.258;2023-05-22T03:11:48;99027.38;;;13.89;100.00
13800;BME280;6971;50.028;9.258;2023-05-22T03:16:48;99030.94;;;13.88;100.00
13800;BME280;6971;50.028;9.258;2023-05-22T03:21:48;99021.72;;;13.69;100.00
13800;BME280;6971;50.028;9.258;2023-05-22T03:26:49;99024.88;;;13.75;100.00
13800;BME280;6971;50.028;9.258;2023-05-22T03:31:49;99018.50;;;13.77;100.00
13800;BME280;6971;50.028;9.258;2023-05-22T03:36:49;99020.03;;;13.68;100.00
13800;BME280;6971;50.028;9.258;2023-05-22T03:41:50;99020.03;;;13.68;100.00
13800;BME280;6971;50.028;9.258;2023-05-22T03:46:50;99014.66;;;13.81;100.00
13800;BME280;6971;50.028;9.258;2023-05-22T03:51:50;99021.44;;;13.86;100.00
13800;BME280;6971;50.028;9.258;2023-05-22T03:56:51;99007.91;;;13.77;100.00
13800;BME280;6971;50.028;9.258;2023-05-22T04:01:51;99017.09;;;13.84;100.00
13800;BME280;6971;50.028;9.258;2023-05-22T04:06:52;99019.13;;;13.81;100.00
13800;BME280;6971;50.028;9.258;2023-05-22T04:11:52;99027.38;;;13.89;100.00
13800;BME280;6971;50.028;9.258;2023-05-22T04:16:53;99028.81;;;13.93;100.00
13800;BME280;6971;50.028;9.258;2023-05-22T04:21:53;99032.69;;;14.01;100.00
13800;BME280;6971;50.028;9.258;2023-05-22T04:26:56;99044.97;;;14.02;100.00
13800;BME280;6971;50.028;9.258;2023-05-22T04:31:59;99046.47;;;14.17;100.00
13800;BME280;6971;50.028;9.258;2023-05-22T04:36:59;99040.59;;;14.25;100.00
13800;BME280;6971;50.028;9.258;2023-05-22T04:42:00;99033.13;;;14.30;100.00
13800;BME280;6971;50.028;9.258;2023-05-22T04:47:04;99044.84;;;14.39;100.00
13800;BME280;6971;50.028;9.258;2023-05-22T04:52:06;99046.84;;;14.60;100.00
13800;BME280;6971;50.028;9.258;2023-05-22T04:57:07;99038.06;;;14.71;100.00
13800;BME280;6971;50.028;9.258;2023-05-22T05:02:07;99036.28;;;14.83;100.00
13800;BME280;6971;50.028;9.258;2023-05-22T05:07:07;99044.22;;;14.94;100.00
13800;BME280;6971;50.028;9.258;2023-05-22T05:12:08;99053.41;;;15.01;100.00
13800;BME280;6971;50.028;9.258;2023-05-22T05:17:09;99054.13;;;15.15;100.00
13800;BME280;6971;50.028;9.258;2023-05-22T05:22:10;99057.00;;;15.23;100.00
13800;BME280;6971;50.028;9.258;2023-05-22T05:27:10;99060.88;;;15.31;100.00
13800;BME280;6971;50.028;9.258;2023-05-22T05:32:10;99072.91;;;15.58;100.00
13800;BME280;6971;50.028;9.258;2023-05-22T05:37:12;99066.50;;;15.60;100.00
13800;BME280;6971;50.028;9.258;2023-05-22T05:42:13;99070.78;;;15.73;100.00
13800;BME280;6971;50.028;9.258;2023-05-22T05:47:13;99076.81;;;15.86;100.00
13800;BME280;6971;50.028;9.258;2023-05-22T05:52:13;99074.50;;;15.93;100.00
13800;BME280;6971;50.028;9.258;2023-05-22T05:57:14;99078.56;;;16.09;100.00
13800;BME280;6971;50.028;9.258;2023-05-22T06:02:14;99083.09;;;16.18;100.00
13800;BME280;6971;50.028;9.258;2023-05-22T06:07:15;99092.97;;;16.27;100.00
13800;BME280;6971;50.028;9.258;2023-05-22T06:12:16;99089.25;;;16.51;100.00
13800;BME280;6971;50.028;9.258;2023-05-22T06:17:16;99087.41;;;16.73;100.00
13800;BME280;6971;50.028;9.258;2023-05-22T06:22:17;99089.84;;;16.86;100.00
13800;BME280;6971;50.028;9.258;2023-05-22T06:27:18;99090.22;;;17.03;100.00
13800;BME280;6971;50.028;9.258;2023-05-22T06:32:27;99086.59;;;17.35;100.00
13800;BME280;6971;50.028;9.258;2023-05-22T06:37:28;99090.41;;;17.52;100.00
13800;BME280;6971;50.028;9.258;2023-05-22T06:42:31;99086.28;;;17.79;100.00
13800;BME280;6971;50.028;9.258;2023-05-22T06:47:31;99094.44;;;18.07;95.20
13800;BME280;6971;50.028;9.258;2023-05-22T06:52:32;99094.47;;;18.27;92.73
13800;BME280;6971;50.028;9.258;2023-05-22T06:57:32;99097.41;;;18.63;90.62
13800;BME280;6971;50.028;9.258;2023-05-22T07:02:33;99099.28;;;18.81;86.48
13800;BME280;6971;50.028;9.258;2023-05-22T07:07:34;99102.72;;;19.21;78.39
13800;BME280;6971;50.028;9.258;2023-05-22T07:12:35;99105.34;;;19.59;77.17
13800;BME280;6971;50.028;9.258;2023-05-22T07:17:35;99105.41;;;19.49;77.81
13800;BME280;6971;50.028;9.258;2023-05-22T07:22:37;99109.59;;;19.80;77.57
13800;BME280;6971;50.028;9.258;2023-05-22T07:27:37;99103.06;;;20.11;72.53
13800;BME280;6971;50.028;9.258;2023-05-22T07:32:37;99107.72;;;20.27;74.85
13800;BME280;6971;50.028;9.258;2023-05-22T07:37:38;99108.00;;;20.60;70.18
13800;BME280;6971;50.028;9.258;2023-05-22T07:42:38;99105.44;;;20.77;74.56
13800;BME280;6971;50.028;9.258;2023-05-22T07:47:38;99109.22;;;22.22;64.85
13800;BME280;6971;50.028;9.258;2023-05-22T07:52:39;99103.34;;;22.35;62.49
13800;BME280;6971;50.028;9.258;2023-05-22T07:57:39;99113.03;;;23.02;64.21
13800;BME280;6971;50.028;9.258;2023-05-22T08:02:39;99121.13;;;23.51;61.39
13800;BME280;6971;50.028;9.258;2023-05-22T08:07:40;99113.53;;;23.06;63.17
13800;BME280;6971;50.028;9.258;2023-05-22T08:12:40;99114.03;;;24.21;57.36
13800;BME280;6971;50.028;9.258;2023-05-22T08:17:41;99111.22;;;24.15;57.59
13800;BME280;6971;50.028;9.258;2023-05-22T08:22:41;99109.63;;;23.65;61.43
13800;BME280;6971;50.028;9.258;2023-05-22T08:27:41;99116.56;;;23.51;58.56
13800;BME280;6971;50.028;9.258;2023-05-22T08:32:42;99111.38;;;22.85;66.53
13800;BME280;6971;50.028;9.258;2023-05-22T08:37:42;99103.66;;;22.90;66.01
13800;BME280;6971;50.028;9.258;2023-05-22T08:42:43;99107.84;;;23.01;67.19
13800;BME280;6971;50.028;9.258;2023-05-22T08:47:47;99098.41;;;23.05;66.96
13800;BME280;6971;50.028;9.258;2023-05-22T08:52:54;99100.25;;;23.04;67.35
13800;BME280;6971;50.028;9.258;2023-05-22T08:57:56;99107.34;;;22.89;68.16
13800;BME280;6971;50.028;9.258;2023-05-22T09:02:57;99108.88;;;23.48;64.29
13800;BME280;6971;50.028;9.258;2023-05-22T09:07:58;99095.72;;;23.62;63.26
13800;BME280;6971;50.028;9.258;2023-05-22T09:13:06;99096.25;;;23.80;63.41
13800;BME280;6971;50.028;9.258;2023-05-22T09:18:08;99096.66;;;23.69;65.97
13800;BME280;6971;50.028;9.258;2023-05-22T09:23:12;99097.28;;;23.79;62.67
13800;BME280;6971;50.028;9.258;2023-05-22T09:28:13;99100.50;;;23.75;64.67
13800;BME280;6971;50.028;9.258;2023-05-22T09:33:14;99099.03;;;24.42;61.81
13800;BME280;6971;50.028;9.258;2023-05-22T09:38:16;99093.38;;;24.14;57.39
13800;BME280;6971;50.028;9.258;2023-05-22T09:43:16;99093.63;;;24.27;57.81
13800;BME280;6971;50.028;9.258;2023-05-22T09:48:17;99095.44;;;25.19;55.40
13800;BME280;6971;50.028;9.258;2023-05-22T09:53:18;99106.06;;;25.87;51.77
13800;BME280;6971;50.028;9.258;2023-05-22T09:58:21;99092.69;;;25.79;52.44
13800;BME280;6971;50.028;9.258;2023-05-22T10:03:25;99097.72;;;26.48;51.82
13800;BME280;6971;50.028;9.258;2023-05-22T10:08:34;99100.38;;;26.69;48.81
13800;BME280;6971;50.028;9.258;2023-05-22T10:13:36;99101.47;;;27.04;49.77
13800;BME280;6971;50.028;9.258;2023-05-22T10:18:37;99106.41;;;27.84;47.81
13800;BME280;6971;50.028;9.258;2023-05-22T10:23:38;99090.47;;;28.30;47.38
13800;BME280;6971;50.028;9.258;2023-05-22T10:29:11;99085.41;;;27.93;48.29
13800;BME280;6971;50.028;9.258;2023-05-22T10:34:16;99082.56;;;27.59;46.94
13800;BME280;6971;50.028;9.258;2023-05-22T10:39:51;99077.97;;;28.56;44.65
13800;BME280;6971;50.028;9.258;2023-05-22T10:44:53;99073.38;;;28.50;45.10
13800;BME280;6971;50.028;9.258;2023-05-22T10:50:06;99079.72;;;29.23;44.79
13800;BME280;6971;50.028;9.258;2023-05-22T10:55:08;99073.53;;;28.89;43.92
13800;BME280;6971;50.028;9.258;2023-05-22T11:00:11;99058.75;;;29.44;43.94
13800;BME280;6971;50.028;9.258;2023-05-22T11:10:52;99046.53;;;29.28;40.78
13800;BME280;6971;50.028;9.258;2023-05-22T11:15:56;99053.69;;;29.61;41.43
13800;BME280;6971;50.028;9.258;2023-05-22T11:20:58;99054.97;;;29.91;40.64
13800;BME280;6971;50.028;9.258;2023-05-22T11:26:16;99050.66;;;29.76;40.83
13800;BME280;6971;50.028;9.258;2023-05-22T11:31:16;99055.78;;;30.23;39.69
13800;BME280;6971;50.028;9.258;2023-05-22T11:36:18;99055.59;;;30.51;39.65
13800;BME280;6971;50.028;9.258;2023-05-22T11:41:18;99046.03;;;29.51;39.11
13800;BME280;6971;50.028;9.258;2023-05-22T11:46:20;99042.34;;;30.35;38.67
13800;BME280;6971;50.028;9.258;2023-05-22T11:51:21;99036.69;;;30.81;38.80
13800;BME280;6971;50.028;9.258;2023-05-22T11:56:21;99024.81;;;28.35;41.08
13800;BME280;6971;50.028;9.258;2023-05-22T12:01:22;99025.28;;;29.18;40.21
13800;BME280;6971;50.028;9.258;2023-05-22T12:06:22;99014.63;;;29.16;40.24
13800;BME280;6971;50.028;9.258;2023-05-22T12:11:24;99020.97;;;30.83;37.68
13800;BME280;6971;50.028;9.258;2023-05-22T12:16:25;99018.22;;;30.20;37.81
13800;BME280;6971;50.028;9.258;2023-05-22T12:21:26;98999.09;;;28.85;40.41
13800;BME280;6971;50.028;9.258;2023-05-22T12:26:27;98999.88;;;30.97;36.96
13800;BME280;6971;50.028;9.258;2023-05-22T12:31:35;99001.69;;;30.22;38.14
13800;BME280;6971;50.028;9.258;2023-05-22T12:36:38;98986.06;;;29.14;39.57
13800;BME280;6971;50.028;9.258;2023-05-22T12:41:39;98981.81;;;28.72;39.65
13800;BME280;6971;50.028;9.258;2023-05-22T12:46:39;98982.53;;;29.84;38.19
13800;BME280;6971;50.028;9.258;2023-05-22T12:51:40;98978.25;;;29.38;37.84
13800;BME280;6971;50.028;9.258;2023-05-22T12:56:40;98988.00;;;29.07;38.30
13800;BME280;6971;50.028;9.258;2023-05-22T13:01:40;98978.50;;;29.29;37.59
13800;BME280;6971;50.028;9.258;2023-05-22T13:06:41;98989.25;;;29.82;37.17
13800;BME280;6971;50.028;9.258;2023-05-22T13:11:41;98976.97;;;28.81;35.99
13800;BME280;6971;50.028;9.258;2023-05-22T13:16:42;98978.41;;;29.43;35.76
13800;BME280;6971;50.028;9.258;2023-05-22T13:21:42;98984.19;;;29.86;34.29
13800;BME280;6971;50.028;9.258;2023-05-22T13:26:43;98981.00;;;28.58;35.94
13800;BME280;6971;50.028;9.258;2023-05-22T13:31:43;98987.22;;;28.79;36.73
13800;BME280;6971;50.028;9.258;2023-05-22T13:36:46;98983.94;;;29.62;35.89
13800;BME280;6971;50.028;9.258;2023-05-22T13:41:46;98978.63;;;29.41;34.70
13800;BME280;6971;50.028;9.258;2023-05-22T13:46:46;98992.06;;;29.29;33.75
13800;BME280;6971;50.028;9.258;2023-05-22T13:51:47;98988.66;;;28.82;35.62
13800;BME280;6971;50.028;9.258;2023-05-22T13:56:47;98977.25;;;28.59;36.20
13800;BME280;6971;50.028;9.258;2023-05-22T14:01:47;98981.66;;;27.79;37.32
13800;BME280;6971;50.028;9.258;2023-05-22T14:06:48;98982.31;;;28.42;36.87
13800;BME280;6971;50.028;9.258;2023-05-22T14:11:48;98985.41;;;28.52;36.70
13800;BME280;6971;50.028;9.258;2023-05-22T14:16:49;98975.78;;;28.63;37.62
13800;BME280;6971;50.028;9.258;2023-05-22T14:21:50;98983.16;;;28.36;38.32
13800;BME280;6971;50.028;9.258;2023-05-22T14:26:50;98994.41;;;27.92;38.73
13800;BME280;6971;50.028;9.258;2023-05-22T14:31:53;98972.72;;;27.79;39.33
13800;BME280;6971;50.028;9.258;2023-05-22T14:36:54;98968.38;;;27.15;41.00
13800;BME280;6971;50.028;9.258;2023-05-22T14:41:57;98964.66;;;27.16;40.43
13800;BME280;6971;50.028;9.258;2023-05-22T14:46:57;98959.00;;;26.62;42.94
13800;BME280;6971;50.028;9.258;2023-05-22T14:51:57;98954.50;;;26.12;44.92
13800;BME280;6971;50.028;9.258;2023-05-22T14:56:58;98965.38;;;25.97;47.03
13800;BME280;6971;50.028;9.258;2023-05-22T15:01:58;98972.94;;;25.80;46.06
13800;BME280;6971;50.028;9.258;2023-05-22T15:06:58;98982.06;;;25.79;46.08
13800;BME280;6971;50.028;9.258;2023-05-22T15:11:59;98973.25;;;24.81;47.97
13800;BME280;6971;50.028;9.258;2023-05-22T15:16:59;98986.06;;;24.64;51.43
13800;BME280;6971;50.028;9.258;2023-05-22T15:22:00;98982.16;;;24.67;49.92
13800;BME280;6971;50.028;9.258;2023-05-22T15:27:00;98977.00;;;24.11;50.16
13800;BME280;6971;50.028;9.258;2023-05-22T15:32:01;98961.66;;;23.73;55.32
13800;BME280;6971;50.028;9.258;2023-05-22T15:37:01;98950.84;;;23.58;58.28
13800;BME280;6971;50.028;9.258;2023-05-22T15:42:01;98946.84;;;23.54;58.27
13800;BME280;6971;50.028;9.258;2023-05-22T15:47:02;98940.97;;;23.74;61.48
13800;BME280;6971;50.028;9.258;2023-05-22T15:52:03;98950.75;;;23.90;59.45
13800;BME280;6971;50.028;9.258;2023-05-22T15:57:03;98953.91;;;23.94;62.35
13800;BME280;6971;50.028;9.258;2023-05-22T16:02:04;98952.69;;;23.58;63.16
13800;BME280;6971;50.028;9.258;2023-05-22T16:07:04;98941.16;;;23.49;67.87
13800;BME280;6971;50.028;9.258;2023-05-22T16:12:05;98928.13;;;23.38;72.82
13800;BME280;6971;50.028;9.258;2023-05-22T16:17:05;98932.97;;;23.11;74.61
13800;BME280;6971;50.028;9.258;2023-05-22T16:22:08;98949.41;;;22.84;74.96
13800;BME280;6971;50.028;9.258;2023-05-22T16:27:08;98957.22;;;22.46;78.11
13800;BME280;6971;50.028;9.258;2023-05-22T16:32:09;98954.75;;;22.27;78.60
13800;BME280;6971;50.028;9.258;2023-05-22T16:37:09;98948.88;;;22.07;79.31
13800;BME280;6971;50.028;9.258;2023-05-22T16:42:10;98976.22;;;21.94;87.28
13800;BME280;6971;50.028;9.258;2023-05-22T16:47:11;98982.22;;;21.71;88.28
13800;BME280;6971;50.028;9.258;2023-05-22T16:52:11;98984.41;;;21.59;84.35
13800;BME280;6971;50.028;9.258;2023-05-22T16:57:11;98999.13;;;21.47;87.85
13800;BME280;6971;50.028;9.258;2023-05-22T17:02:12;99003.50;;;21.64;78.61
13800;BME280;6971;50.028;9.258;2023-05-22T17:07:12;99004.00;;;21.60;76.52
13800;BME280;6971;50.028;9.258;2023-05-22T17:12:13;99007.53;;;21.69;71.66
13800;BME280;6971;50.028;9.258;2023-05-22T17:17:13;98996.41;;;21.38;67.86
13800;BME280;6971;50.028;9.258;2023-05-22T17:22:13;98998.25;;;21.38;68.51
13800;BME280;6971;50.028;9.258;2023-05-22T17:27:16;98976.75;;;21.13;70.44
13800;BME280;6971;50.028;9.258;2023-05-22T17:32:17;98979.25;;;21.06;71.71
13800;BME280;6971;50.028;9.258;2023-05-22T17:37:17;99003.13;;;20.91;73.50
13800;BME280;6971;50.028;9.258;2023-05-22T17:42:17;99013.53;;;20.94;68.08
13800;BME280;6971;50.028;9.258;2023-05-22T17:47:18;99033.44;;;21.00;66.75
13800;BME280;6971;50.028;9.258;2023-05-22T17:52:18;99028.09;;;20.47;76.12
13800;BME280;6971;50.028;9.258;2023-05-22T17:57:18;99032.22;;;20.15;79.70
13800;BME280;6971;50.028;9.258;2023-05-22T18:02:19;99042.19;;;20.04;83.92
13800;BME280;6971;50.028;9.258;2023-05-22T18:07:19;99103.84;;;20.03;74.52
13800;BME280;6971;50.028;9.258;2023-05-22T18:12:20;99108.88;;;20.24;71.30
13800;BME280;6971;50.028;9.258;2023-05-22T18:17:20;99102.97;;;20.39;70.62
13800;BME280;6971;50.028;9.258;2023-05-22T18:22:20;99091.16;;;20.23;71.04
13800;BME280;6971;50.028;9.258;2023-05-22T18:27:21;99098.81;;;20.18;71.44
13800;BME280;6971;50.028;9.258;2023-05-22T18:32:21;99081.34;;;19.95;76.51
13800;BME280;6971;50.028;9.258;2023-05-22T18:37:21;99076.56;;;19.71;75.91
13800;BME280;6971;50.028;9.258;2023-05-22T18:42:22;99085.59;;;19.70;78.77
13800;BME280;6971;50.028;9.258;2023-05-22T18:47:22;99073.22;;;19.13;92.20
13800;BME280;6971;50.028;9.258;2023-05-22T18:52:23;99083.53;;;18.40;100.00
13800;BME280;6971;50.028;9.258;2023-05-22T18:57:23;99063.34;;;17.47;100.00
13800;BME280;6971;50.028;9.258;2023-05-22T19:02:24;99049.63;;;17.52;100.00
13800;BME280;6971;50.028;9.258;2023-05-22T19:07:25;99037.31;;;17.09;100.00
13800;BME280;6971;50.028;9.258;2023-05-22T19:12:25;99047.38;;;17.47;100.00
13800;BME280;6971;50.028;9.258;2023-05-22T19:17:30;99041.56;;;17.22;100.00
13800;BME280;6971;50.028;9.258;2023-05-22T19:22:30;99039.78;;;17.01;100.00
13800;BME280;6971;50.028;9.258;2023-05-22T19:27:31;99024.25;;;16.75;100.00
13800;BME280;6971;50.028;9.258;2023-05-22T19:32:31;99019.88;;;16.64;100.00
13800;BME280;6971;50.028;9.258;2023-05-22T19:37:31;99008.41;;;16.42;100.00
13800;BME280;6971;50.028;9.258;2023-05-22T19:42:32;99022.94;;;16.38;100.00
13800;BME280;6971;50.028;9.258;2023-05-22T19:47:32;99024.78;;;16.38;100.00
13800;BME280;6971;50.028;9.258;2023-05-22T19:52:32;99034.38;;;15.96;100.00
13800;BME280;6971;50.028;9.258;2023-05-22T19:57:33;99040.31;;;16.00;100.00
13800;BME280;6971;50.028;9.258;2023-05-22T20:02:33;99057.34;;;15.97;100.00
13800;BME280;6971;50.028;9.258;2023-05-22T20:07:37;99078.75;;;15.96;100.00
13800;BME280;6971;50.028;9.258;2023-05-22T20:12:38;99087.91;;;15.80;100.00
13800;BME280;6971;50.028;9.258;2023-05-22T20:17:39;99099.06;;;15.74;100.00
13800;BME280;6971;50.028;9.258;2023-05-22T20:22:40;99095.66;;;15.72;100.00
13800;BME280;6971;50.028;9.258;2023-05-22T20:27:41;99095.94;;;15.69;100.00
13800;BME280;6971;50.028;9.258;2023-05-22T20:32:41;99096.16;;;15.65;100.00
13800;BME280;6971;50.028;9.258;2023-05-22T20:37:44;99118.34;;;15.76;100.00
13800;BME280;6971;50.028;9.258;2023-05-22T20:42:45;99126.22;;;15.77;100.00
13800;BME280;6971;50.028;9.258;2023-05-22T20:47:46;99132.03;;;15.60;100.00
13800;BME280;6971;50.028;9.258;2023-05-22T20:52:47;99134.69;;;15.48;100.00
13800;BME280;6971;50.028;9.258;2023-05-22T20:57:47;99151.13;;;15.31;100.00
13800;BME280;6971;50.028;9.258;2023-05-22T21:02:48;99148.59;;;15.29;100.00
13800;BME280;6971;50.028;9.258;2023-05-22T21:07:48;99140.34;;;15.09;100.00
13800;BME280;6971;50.028;9.258;2023-05-22T21:12:48;99162.94;;;15.15;100.00
13800;BME280;6971;50.028;9.258;2023-05-22T21:18:03;99160.50;;;15.00;100.00
13800;BME280;6971;50.028;9.258;2023-05-22T21:23:03;99164.09;;;14.99;100.00
13800;BME280;6971;50.028;9.258;2023-05-22T21:28:03;99166.00;;;14.86;100.00
13800;BME280;6971;50.028;9.258;2023-05-22T21:33:06;99166.38;;;14.81;100.00
13800;BME280;6971;50.028;9.258;2023-05-22T21:38:07;99154.84;;;14.69;100.00
13800;BME280;6971;50.028;9.258;2023-05-22T21:43:09;99170.13;;;14.54;100.00
13800;BME280;6971;50.028;9.258;2023-05-22T21:48:10;99171.88;;;14.42;100.00
13800;BME280;6971;50.028;9.258;2023-05-22T21:53:10;99167.00;;;14.36;100.00
13800;BME280;6971;50.028;9.258;2023-05-22T21:58:11;99167.47;;;14.30;100.00
13800;BME280;6971;50.028;9.258;2023-05-22T22:03:12;99166.97;;;14.25;100.00
13800;BME280;6971;50.028;9.258;2023-05-22T22:08:12;99166.81;;;14.15;100.00
13800;BME280;6971;50.028;9.258;2023-05-22T22:13:13;99169.34;;;14.16;100.00
13800;BME280;6971;50.028;9.258;2023-05-22T22:18:13;99180.09;;;14.02;100.00
13800;BME280;6971;50.028;9.258;2023-05-22T22:23:14;99181.41;;;13.96;100.00
13800;BME280;6971;50.028;9.258;2023-05-22T22:28:14;99177.28;;;13.92;100.00
13800;BME280;6971;50.028;9.258;2023-05-22T22:33:15;99177.28;;;13.92;100.00
13800;BME280;6971;50.028;9.258;2023-05-22T22:38:15;99169.47;;;14.02;100.00
13800;BME280;6971;50.028;9.258;2023-05-22T22:43:16;99178.44;;;13.88;100.00
13800;BME280;6971;50.028;9.258;2023-05-22T22:48:16;99170.50;;;13.88;100.00
13800;BME280;6971;50.028;9.258;2023-05-22T22:53:21;99168.53;;;13.78;100.00
13800;BME280;6971;50.028;9.258;2023-05-22T22:58:21;99166.63;;;13.67;100.00
13800;BME280;6971;50.028;9.258;2023-05-22T23:03:21;99166.00;;;13.64;100.00
13800;BME280;6971;50.028;9.258;2023-05-22T23:08:22;99169.38;;;13.66;100.00
13800;BME280;6971;50.028;9.258;2023-05-22T23:13:22;99173.63;;;13.68;100.00
13800;BME280;6971;50.028;9.258;2023-05-22T23:18:23;99180.19;;;13.76;100.00
13800;BME280;6971;50.028;9.258;2023-05-22T23:23:23;99183.84;;;13.86;100.00
13800;BME280;6971;50.028;9.258;2023-05-22T23:28:23;99185.75;;;13.84;100.00
13800;BME280;6971;50.028;9.258;2023-05-22T23:33:24;99186.03;;;14.05;100.00
13800;BME280;6971;50.028;9.258;2023-05-22T23:38:24;99187.53;;;13.96;100.00
13800;BME280;6971;50.028;9.258;2023-05-22T23:43:24;99191.69;;;13.88;100.00
13800;BME280;6971;50.028;9.258;2023-05-22T23:48:25;99199.28;;;13.92;100.00
13800;BME280;6971;50.028;9.258;2023-05-22T23:53:25;99187.78;;;13.93;100.00
13800;BME280;6971;50.028;9.258;2023-05-22T23:58:26;99201.53;;;13.99;100.00
